createdAt,value
2018-08-07T00:01:18.264Z,25.00
2018-08-07T00:03:46.792Z,25.00
2018-08-07T00:06:15.256Z,25.00
2018-08-07T00:08:43.771Z,25.00
2018-08-07T00:11:12.219Z,25.00
2018-08-07T00:13:40.732Z,24.90
2018-08-07T00:16:09.196Z,24.90
2018-08-07T00:18:37.651Z,24.80
2018-08-07T00:21:06.116Z,24.80
2018-08-07T00:23:34.615Z,24.80
2018-08-07T00:26:03.103Z,24.80
2018-08-07T00:28:31.596Z,24.80
2018-08-07T00:31:00.088Z,24.80
2018-08-07T00:33:28.600Z,24.70
2018-08-07T00:38:25.487Z,24.60
2018-08-07T00:40:53.986Z,24.60
2018-08-07T00:43:22.431Z,24.60
2018-08-07T00:48:19.016Z,24.60
2018-08-07T00:50:47.488Z,24.50
2018-08-07T00:53:15.963Z,24.50
2018-08-07T00:55:44.443Z,24.50
2018-08-07T00:58:12.929Z,24.50
2018-08-07T01:00:41.455Z,24.50
2018-08-07T01:03:09.951Z,24.40
2018-08-07T01:05:38.451Z,24.40
2018-08-07T01:08:06.952Z,24.40
2018-08-07T01:10:35.415Z,24.30
2018-08-07T01:13:03.899Z,24.30
2018-08-07T01:18:00.551Z,24.20
2018-08-07T01:22:57.151Z,24.10
2018-08-07T01:25:26.410Z,24.10
2018-08-07T01:27:55.211Z,24.10
2018-08-07T01:30:27.557Z,24.00
2018-08-07T01:32:56.604Z,24.00
2018-08-07T01:35:25.874Z,23.90
2018-08-07T01:37:54.340Z,23.90
2018-08-07T01:40:22.871Z,23.90
2018-08-07T01:42:51.327Z,23.90
2018-08-07T01:45:19.859Z,23.80
2018-08-07T01:47:48.346Z,23.80
2018-08-07T01:50:17.179Z,23.80
2018-08-07T01:52:45.670Z,23.80
2018-08-07T01:55:24.303Z,23.80
2018-08-07T01:57:52.939Z,23.70
2018-08-07T02:00:21.451Z,23.70
2018-08-07T02:02:50.412Z,23.70
2018-08-07T02:05:19.136Z,23.70
2018-08-07T02:07:47.735Z,23.60
2018-08-07T02:10:17.815Z,23.60
2018-08-07T02:12:46.312Z,23.60
2018-08-07T02:17:43.520Z,23.50
2018-08-07T02:20:13.708Z,23.50
2018-08-07T02:22:43.116Z,23.40
2018-08-07T02:25:16.178Z,23.40
2018-08-07T02:27:45.317Z,23.40
2018-08-07T02:30:15.044Z,23.40
2018-08-07T02:32:43.665Z,23.40
2018-08-07T02:35:13.494Z,23.40
2018-08-07T02:37:43.133Z,23.30
2018-08-07T02:40:12.719Z,23.30
2018-08-07T02:45:11.817Z,23.30
2018-08-07T02:47:40.949Z,23.30
2018-08-07T02:50:10.645Z,23.20
2018-08-07T02:55:09.272Z,23.10
2018-08-07T02:57:38.153Z,23.10
2018-08-07T03:00:08.564Z,23.10
2018-08-07T03:05:06.756Z,23.00
2018-08-07T03:07:35.389Z,23.00
2018-08-07T03:10:04.541Z,22.90
2018-08-07T03:15:01.220Z,22.90
2018-08-07T03:17:29.777Z,22.90
2018-08-07T03:22:26.464Z,22.80
2018-08-07T03:24:54.961Z,22.80
2018-08-07T03:27:23.520Z,22.80
2018-08-07T03:34:48.366Z,22.70
2018-08-07T03:37:16.857Z,22.60
2018-08-07T03:39:45.396Z,22.60
2018-08-07T03:44:42.086Z,22.60
2018-08-07T03:47:10.600Z,22.60
2018-08-07T03:49:39.135Z,22.60
2018-08-07T03:52:07.678Z,22.50
2018-08-07T03:54:36.162Z,22.50
2018-08-07T03:57:04.701Z,22.50
2018-08-07T03:59:33.188Z,22.50
2018-08-07T04:02:01.696Z,22.40
2018-08-07T04:04:30.182Z,22.40
2018-08-07T04:06:58.721Z,22.40
2018-08-07T04:09:27.229Z,22.40
2018-08-07T04:11:55.730Z,22.40
2018-08-07T04:14:24.288Z,22.40
2018-08-07T04:16:55.169Z,22.40
2018-08-07T04:19:25.525Z,22.40
2018-08-07T04:21:54.392Z,22.40
2018-08-07T04:24:22.922Z,22.40
2018-08-07T04:26:51.657Z,22.40
2018-08-07T04:29:20.269Z,22.40
2018-08-07T04:31:48.773Z,22.40
2018-08-07T04:34:17.449Z,22.40
2018-08-07T04:36:45.996Z,22.40
2018-08-07T04:39:14.596Z,22.30
2018-08-07T04:41:43.269Z,22.40
2018-08-07T04:44:11.823Z,22.40
2018-08-07T04:46:40.689Z,22.40
2018-08-07T04:49:09.213Z,22.40
2018-08-07T04:51:37.879Z,22.30
2018-08-07T04:54:06.700Z,22.30
2018-08-07T04:59:03.776Z,22.30
2018-08-07T05:04:00.475Z,22.30
2018-08-07T05:06:29.021Z,22.40
2018-08-07T05:08:57.511Z,22.40
2018-08-07T05:11:25.997Z,22.40
2018-08-07T05:13:54.514Z,22.40
2018-08-07T05:16:23.013Z,22.40
2018-08-07T05:18:51.594Z,22.40
2018-08-07T05:21:20.205Z,22.40
2018-08-07T05:23:48.758Z,22.50
2018-08-07T05:26:17.313Z,22.50
2018-08-07T05:28:45.893Z,22.50
2018-08-07T05:31:14.338Z,22.50
2018-08-07T05:36:11.045Z,22.60
2018-08-07T05:38:39.757Z,22.60
2018-08-07T05:41:08.319Z,22.70
2018-08-07T05:43:36.809Z,22.70
2018-08-07T05:46:05.425Z,22.70
2018-08-07T05:53:30.377Z,22.80
2018-08-07T05:55:58.988Z,22.90
2018-08-07T05:58:27.504Z,22.90
2018-08-07T06:00:56.026Z,22.90
2018-08-07T06:05:52.744Z,23.00
2018-08-07T06:08:21.360Z,23.00
2018-08-07T06:10:49.976Z,23.00
2018-08-07T06:13:18.525Z,23.10
2018-08-07T06:18:15.197Z,23.20
2018-08-07T06:20:43.708Z,23.20
2018-08-07T06:23:12.229Z,23.30
2018-08-07T06:25:40.804Z,23.40
2018-08-07T06:28:09.298Z,23.50
2018-08-07T06:30:37.849Z,23.50
2018-08-07T06:33:06.394Z,23.60
2018-08-07T06:35:34.968Z,23.70
2018-08-07T06:38:03.506Z,23.80
2018-08-07T06:40:32.037Z,23.80
2018-08-07T06:43:00.546Z,23.90
2018-08-07T06:45:29.108Z,23.90
2018-08-07T06:47:57.620Z,24.00
2018-08-07T06:50:26.199Z,24.00
2018-08-07T06:52:54.681Z,24.10
2018-08-07T06:55:23.192Z,24.20
2018-08-07T06:57:51.757Z,24.20
2018-08-07T07:00:25.605Z,24.30
2018-08-07T07:02:54.846Z,24.40
2018-08-07T07:05:23.416Z,24.50
2018-08-07T07:07:52.101Z,24.60
2018-08-07T07:10:20.572Z,24.60
2018-08-07T07:15:17.847Z,24.80
2018-08-07T07:17:47.357Z,24.80
2018-08-07T07:20:16.872Z,25.00
2018-08-07T07:22:46.547Z,25.00
2018-08-07T07:25:15.293Z,25.10
2018-08-07T07:27:44.021Z,25.20
2018-08-07T07:30:15.715Z,25.30
2018-08-07T07:32:45.697Z,25.40
2018-08-07T07:37:43.584Z,25.60
2018-08-07T07:40:12.293Z,25.70
2018-08-07T07:42:40.841Z,25.80
2018-08-07T07:45:11.853Z,25.90
2018-08-07T07:47:41.001Z,26.00
2018-08-07T07:50:18.529Z,26.00
2018-08-07T07:52:47.130Z,26.10
2018-08-07T07:55:16.577Z,26.20
2018-08-07T07:57:45.149Z,26.30
2018-08-07T08:00:16.432Z,26.40
2018-08-07T08:02:44.985Z,26.50
2018-08-07T08:05:13.558Z,26.60
2018-08-07T08:07:42.006Z,26.60
2018-08-07T08:10:10.872Z,26.70
2018-08-07T08:12:40.006Z,26.80
2018-08-07T08:15:10.982Z,26.90
2018-08-07T08:17:39.497Z,26.90
2018-08-07T08:20:10.193Z,27.00
2018-08-07T08:22:39.105Z,27.10
2018-08-07T08:27:37.441Z,27.30
2018-08-07T08:30:11.613Z,27.40
2018-08-07T08:32:40.201Z,27.40
2018-08-07T08:37:39.544Z,27.60
2018-08-07T08:40:10.102Z,27.70
2018-08-07T08:42:39.553Z,27.80
2018-08-07T08:45:12.955Z,27.90
2018-08-07T08:47:42.393Z,28.00
2018-08-07T08:50:13.217Z,28.10
2018-08-07T08:52:42.485Z,28.20
2018-08-07T08:55:11.493Z,28.30
2018-08-07T08:57:40.912Z,28.40
2018-08-07T09:00:18.646Z,28.50
2018-08-07T09:02:47.721Z,28.60
2018-08-07T09:05:17.137Z,28.70
2018-08-07T09:07:46.013Z,28.80
2018-08-07T09:10:16.864Z,28.90
2018-08-07T09:12:45.399Z,29.00
2018-08-07T09:15:14.204Z,29.00
2018-08-07T09:17:42.906Z,29.20
2018-08-07T09:20:15.005Z,29.20
2018-08-07T09:22:44.082Z,29.30
2018-08-07T09:25:12.794Z,29.40
2018-08-07T09:27:42.244Z,29.50
2018-08-07T09:30:14.877Z,29.60
2018-08-07T09:32:43.805Z,29.80
2018-08-07T09:35:13.249Z,29.80
2018-08-07T09:37:42.205Z,30.00
2018-08-07T09:40:13.409Z,30.10
2018-08-07T09:42:43.297Z,30.20
2018-08-07T09:45:15.601Z,30.40
2018-08-07T09:47:44.986Z,30.60
2018-08-07T09:50:14.900Z,30.70
2018-08-07T09:55:12.394Z,31.10
2018-08-07T09:57:40.972Z,31.30
2018-08-07T10:00:17.593Z,31.60
2018-08-07T10:02:49.988Z,31.80
2018-08-07T10:05:19.703Z,31.90
2018-08-07T10:07:48.697Z,32.10
2018-08-07T10:10:17.260Z,32.40
2018-08-07T10:12:46.293Z,32.50
2018-08-07T10:15:15.481Z,32.70
2018-08-07T10:20:12.873Z,33.50
2018-08-07T10:22:41.861Z,33.70
2018-08-07T10:25:12.448Z,34.10
2018-08-07T10:27:43.148Z,34.40
2018-08-07T10:30:13.648Z,34.90
2018-08-07T10:32:42.664Z,35.20
2018-08-07T10:35:12.252Z,35.20
2018-08-07T10:40:12.808Z,35.40
2018-08-07T10:42:41.581Z,35.80
2018-08-07T10:45:12.093Z,36.00
2018-08-07T10:47:41.040Z,36.50
2018-08-07T10:50:25.161Z,36.80
2018-08-07T10:52:53.857Z,36.90
2018-08-07T10:55:23.185Z,36.60
2018-08-07T10:57:54.228Z,36.90
2018-08-07T11:00:29.477Z,37.20
2018-08-07T11:02:58.841Z,37.00
2018-08-07T11:05:27.945Z,37.20
2018-08-07T11:10:25.161Z,37.80
2018-08-07T11:12:54.259Z,38.30
2018-08-07T11:15:33.645Z,38.20
2018-08-07T11:18:02.976Z,38.40
2018-08-07T11:20:31.940Z,38.40
2018-08-07T11:25:30.748Z,39.00
2018-08-07T11:30:28.767Z,39.70
2018-08-07T11:32:58.463Z,40.10
2018-08-07T11:35:27.359Z,40.90
2018-08-07T11:37:57.420Z,40.20
2018-08-07T11:40:26.580Z,40.60
2018-08-07T11:42:55.961Z,40.00
2018-08-07T11:47:54.387Z,39.30
2018-08-07T11:50:26.548Z,39.00
2018-08-07T11:52:55.217Z,38.50
2018-08-07T11:55:24.529Z,38.60
2018-08-07T11:57:54.033Z,38.90
2018-08-07T12:00:44.322Z,39.60
2018-08-07T12:03:12.864Z,39.70
2018-08-07T12:05:41.437Z,40.10
2018-08-07T12:08:10.135Z,40.30
2018-08-07T12:10:38.639Z,40.30
2018-08-07T12:13:07.271Z,40.90
2018-08-07T12:15:35.883Z,41.10
2018-08-07T12:18:04.950Z,41.40
2018-08-07T12:20:33.605Z,41.30
2018-08-07T12:23:02.208Z,40.50
2018-08-07T12:25:30.758Z,40.70
2018-08-07T12:27:59.285Z,41.10
2018-08-07T12:30:29.272Z,41.50
2018-08-07T12:35:26.369Z,40.60
2018-08-07T12:37:54.932Z,39.40
2018-08-07T12:40:26.462Z,38.50
2018-08-07T12:42:58.803Z,37.50
2018-08-07T12:45:27.368Z,37.10
2018-08-07T12:47:56.213Z,36.70
2018-08-07T12:50:24.814Z,36.30
2018-08-07T12:55:22.626Z,35.60
2018-08-07T12:57:51.704Z,35.30
2018-08-07T13:02:51.315Z,35.10
2018-08-07T13:07:48.065Z,34.70
2018-08-07T13:10:18.243Z,34.50
2018-08-07T13:12:47.433Z,34.50
2018-08-07T13:15:17.329Z,34.40
2018-08-07T13:17:46.441Z,34.30
2018-08-07T13:20:14.997Z,34.30
2018-08-07T13:22:44.308Z,34.30
2018-08-07T13:25:15.194Z,34.20
2018-08-07T13:27:43.761Z,34.10
2018-08-07T13:30:16.341Z,34.00
2018-08-07T13:32:44.893Z,33.90
2018-08-07T13:35:13.516Z,33.90
2018-08-07T13:37:43.712Z,33.80
2018-08-07T13:40:14.273Z,33.80
2018-08-07T13:42:42.844Z,33.80
2018-08-07T13:45:16.969Z,33.80
2018-08-07T13:47:45.612Z,33.90
2018-08-07T13:50:17.633Z,33.90
2018-08-07T13:52:46.801Z,33.90
2018-08-07T13:57:44.748Z,33.90
2018-08-07T14:00:22.318Z,34.00
2018-08-07T14:02:51.507Z,34.00
2018-08-07T14:05:20.913Z,34.20
2018-08-07T14:07:50.597Z,34.40
2018-08-07T14:10:19.892Z,34.50
2018-08-07T14:12:48.489Z,34.70
2018-08-07T14:15:17.985Z,34.90
2018-08-07T14:17:46.801Z,34.80
2018-08-07T14:20:16.279Z,34.70
2018-08-07T14:22:45.108Z,34.60
2018-08-07T14:25:18.312Z,34.60
2018-08-07T14:27:46.869Z,34.70
2018-08-07T14:30:18.309Z,34.90
2018-08-07T14:32:47.036Z,34.90
2018-08-07T14:35:15.590Z,34.80
2018-08-07T14:37:45.185Z,34.50
2018-08-07T14:45:13.836Z,34.20
2018-08-07T14:47:43.121Z,34.00
2018-08-07T14:50:16.849Z,34.00
2018-08-07T14:52:45.357Z,34.10
2018-08-07T14:55:13.940Z,34.10
2018-08-07T14:57:42.805Z,34.10
2018-08-07T15:00:15.338Z,34.00
2018-08-07T15:02:44.989Z,33.90
2018-08-07T15:05:13.528Z,33.80
2018-08-07T15:07:42.069Z,33.80
2018-08-07T15:10:13.726Z,33.70
2018-08-07T15:12:42.385Z,33.80
2018-08-07T15:17:40.457Z,33.90
2018-08-07T15:20:10.800Z,33.80
2018-08-07T15:22:39.513Z,33.90
2018-08-07T15:25:11.306Z,34.00
2018-08-07T15:27:39.858Z,34.20
2018-08-07T15:30:13.359Z,34.30
2018-08-07T15:32:42.141Z,34.40
2018-08-07T15:35:10.746Z,34.40
2018-08-07T15:37:39.264Z,34.40
2018-08-07T15:40:08.809Z,34.10
2018-08-07T15:42:37.464Z,33.90
2018-08-07T15:45:07.201Z,33.60
2018-08-07T15:47:35.769Z,33.50
2018-08-07T15:52:33.816Z,33.50
2018-08-07T15:55:02.349Z,33.50
2018-08-07T16:02:27.260Z,33.80
2018-08-07T16:04:55.762Z,33.80
2018-08-07T16:07:24.348Z,33.90
2018-08-07T16:12:21.001Z,33.80
2018-08-07T16:17:17.708Z,33.80
2018-08-07T16:19:46.224Z,33.80
2018-08-07T16:22:14.829Z,33.60
2018-08-07T16:24:43.281Z,33.50
2018-08-07T16:27:11.832Z,33.50
2018-08-07T16:29:40.386Z,33.50
2018-08-07T16:32:08.905Z,33.50
2018-08-07T16:34:37.473Z,33.60
2018-08-07T16:37:06.245Z,33.50
2018-08-07T16:39:34.787Z,33.50
2018-08-07T16:42:03.343Z,33.40
2018-08-07T16:44:31.932Z,33.30
2018-08-07T16:47:00.428Z,33.20
2018-08-07T16:49:28.989Z,33.20
2018-08-07T16:51:57.540Z,33.10
2018-08-07T16:54:26.075Z,33.10
2018-08-07T16:56:54.597Z,33.20
2018-08-07T16:59:23.172Z,33.20
2018-08-07T17:01:51.669Z,33.20
2018-08-07T17:04:20.178Z,33.30
2018-08-07T17:06:48.693Z,33.30
2018-08-07T17:09:17.205Z,33.30
2018-08-07T17:11:45.712Z,33.20
2018-08-07T17:14:14.240Z,33.10
2018-08-07T17:16:42.820Z,33.00
2018-08-07T17:19:11.336Z,32.90
2018-08-07T17:21:39.881Z,32.90
2018-08-07T17:24:08.429Z,32.90
2018-08-07T17:26:36.945Z,32.80
2018-08-07T17:29:05.489Z,32.70
2018-08-07T17:31:34.033Z,32.70
2018-08-07T17:34:02.545Z,32.70
2018-08-07T17:36:31.085Z,32.60
2018-08-07T17:38:59.672Z,32.50
2018-08-07T17:41:28.264Z,32.40
2018-08-07T17:43:56.762Z,32.30
2018-08-07T17:48:53.440Z,32.10
2018-08-07T17:51:21.930Z,32.00
2018-08-07T17:53:50.460Z,32.00
2018-08-07T17:56:18.968Z,31.90
2018-08-07T18:03:43.857Z,31.60
2018-08-07T18:06:12.472Z,31.60
2018-08-07T18:08:41.041Z,31.50
2018-08-07T18:11:09.537Z,31.40
2018-08-07T18:13:38.103Z,31.40
2018-08-07T18:16:06.889Z,31.30
2018-08-07T18:18:35.463Z,31.20
2018-08-07T18:21:03.997Z,31.10
2018-08-07T18:23:32.497Z,31.00
2018-08-07T18:26:01.057Z,30.80
2018-08-07T18:28:29.595Z,30.60
2018-08-07T18:30:58.121Z,30.50
2018-08-07T18:33:26.619Z,30.40
2018-08-07T18:35:55.145Z,30.30
2018-08-07T18:38:23.656Z,30.20
2018-08-07T18:40:52.157Z,30.10
2018-08-07T18:45:48.897Z,29.90
2018-08-07T18:48:17.393Z,29.80
2018-08-07T18:53:14.105Z,29.70
2018-08-07T18:55:42.620Z,29.60
2018-08-07T18:58:11.187Z,29.60
2018-08-07T19:00:39.705Z,29.50
2018-08-07T19:05:36.433Z,29.40
2018-08-07T19:08:04.932Z,29.30
2018-08-07T19:10:33.437Z,29.20
2018-08-07T19:13:01.948Z,29.10
2018-08-07T19:15:30.489Z,29.00
2018-08-07T19:20:27.224Z,28.90
2018-08-07T19:22:55.729Z,28.80
2018-08-07T19:27:52.455Z,28.70
2018-08-07T19:30:22.837Z,28.60
2018-08-07T19:32:51.320Z,28.60
2018-08-07T19:35:19.897Z,28.60
2018-08-07T19:42:46.960Z,28.50
2018-08-07T19:47:44.857Z,28.30
2018-08-07T19:50:14.884Z,28.30
2018-08-07T19:52:43.433Z,28.20
2018-08-07T19:55:15.197Z,28.20
2018-08-07T19:57:43.801Z,28.20
2018-08-07T20:02:42.728Z,28.10
2018-08-07T20:05:11.266Z,28.10
2018-08-07T20:07:40.092Z,28.10
2018-08-07T20:10:10.121Z,28.10
2018-08-07T20:12:39.109Z,28.10
2018-08-07T20:15:10.856Z,28.00
2018-08-07T20:20:08.744Z,27.90
2018-08-07T20:22:37.308Z,27.80
2018-08-07T20:25:06.859Z,27.80
2018-08-07T20:27:35.409Z,27.70
2018-08-07T20:32:33.287Z,27.70
2018-08-07T20:35:01.853Z,27.60
2018-08-07T20:37:30.469Z,27.70
2018-08-07T20:39:59.205Z,27.60
2018-08-07T20:42:27.648Z,27.60
2018-08-07T20:44:56.256Z,27.60
2018-08-07T20:47:24.821Z,27.50
2018-08-07T20:49:53.369Z,27.50
2018-08-07T20:52:21.961Z,27.50
2018-08-07T20:54:50.437Z,27.50
2018-08-07T20:57:18.980Z,27.40
2018-08-07T20:59:47.456Z,27.30
2018-08-07T21:02:16.042Z,27.20
2018-08-07T21:04:44.553Z,27.20
2018-08-07T21:07:13.125Z,27.10
2018-08-07T21:09:41.693Z,27.10
2018-08-07T21:12:10.301Z,27.00
2018-08-07T21:14:38.879Z,27.00
2018-08-07T21:17:07.585Z,27.00
2018-08-07T21:19:36.133Z,27.00
2018-08-07T21:22:04.841Z,27.00
2018-08-07T21:24:33.389Z,26.90
2018-08-07T21:27:01.893Z,26.80
2018-08-07T21:29:30.421Z,26.70
2018-08-07T21:31:58.933Z,26.60
2018-08-07T21:34:27.460Z,26.60
2018-08-07T21:36:56.117Z,26.50
2018-08-07T21:39:24.644Z,26.50
2018-08-07T21:41:53.165Z,26.50
2018-08-07T21:44:21.680Z,26.40
2018-08-07T21:46:50.193Z,26.40
2018-08-07T21:49:18.805Z,26.40
2018-08-07T21:51:47.352Z,26.40
2018-08-07T21:54:15.848Z,26.30
2018-08-07T21:56:44.372Z,26.30
2018-08-07T21:59:12.848Z,26.30
2018-08-07T22:01:41.400Z,26.30
2018-08-07T22:04:09.918Z,26.20
2018-08-07T22:06:38.606Z,26.20
2018-08-07T22:09:08.394Z,26.20
2018-08-07T22:11:36.957Z,26.10
2018-08-07T22:14:05.637Z,26.00
2018-08-07T22:16:34.392Z,25.90
2018-08-07T22:19:02.989Z,25.70
2018-08-07T22:21:31.520Z,25.60
2018-08-07T22:28:56.372Z,25.50
2018-08-07T22:31:24.916Z,25.50
2018-08-07T22:33:53.477Z,25.50
2018-08-07T22:36:22.013Z,25.50
2018-08-07T22:38:50.532Z,25.50
2018-08-07T22:41:19.078Z,25.50
2018-08-07T22:43:47.556Z,25.40
2018-08-07T22:48:44.273Z,25.40
2018-08-07T22:51:12.883Z,25.40
2018-08-07T22:53:41.432Z,25.40
2018-08-07T22:56:10.021Z,25.30
2018-08-07T22:58:38.521Z,25.20
2018-08-07T23:01:07.856Z,25.20
2018-08-07T23:06:04.609Z,25.10
2018-08-07T23:11:01.280Z,25.00
2018-08-07T23:13:29.817Z,25.00
2018-08-07T23:15:58.381Z,25.00
2018-08-07T23:18:26.885Z,24.90
2018-08-07T23:20:55.477Z,24.90
2018-08-07T23:23:23.969Z,24.90
2018-08-07T23:28:20.657Z,24.80
2018-08-07T23:30:49.196Z,24.80
2018-08-07T23:33:17.701Z,24.70
2018-08-07T23:38:14.417Z,24.60
2018-08-07T23:40:42.928Z,24.50
2018-08-07T23:43:11.489Z,24.40
2018-08-07T23:45:40.140Z,24.40
2018-08-07T23:48:08.673Z,24.30
2018-08-07T23:50:37.177Z,24.30
2018-08-07T23:53:05.702Z,24.40
2018-08-07T23:55:34.229Z,24.40
2018-08-07T23:58:02.725Z,24.40
